Flight Track Log - Related Links

Times and Time Zones

All times are in EDT time to prevent confusion due to time zone crossing. See the CPT1940 flight status page for this flight to view local times or setup timezone preferences in your user account.

Time Position Orientation Groundspeed Altitude Reporting Facility
EDT Latitude Longitude Course Direction KTS MPH feet Rate Location/Type
Wed 10:33:59 AM 41.9275 -103.6825 313° West 94 108 7,700  Level Denver Center
Wed 10:35:01 AM 41.9489 -103.7136 313° West 99 114 8,700 919 Climbing Denver Center
Wed 10:36:03 AM 41.9664 -103.7403 311° West 99 114 9,600 629 Climbing Denver Center
Wed 10:37:05 AM 41.9878 -103.7733 311° West 102 117 10,000 192 Climbing Denver Center
Wed 10:38:08 AM 42.0100 -103.8067 312° West 115 132 10,000  Level Denver Center
Wed 10:39:10 AM 42.0356 -103.8494 309° West 126 145 10,000  Level Denver Center
Wed 10:40:12 AM 42.0586 -103.8858 310° West 131 151 10,000  Level Denver Center
Wed 10:41:14 AM 42.0858 -103.9281 311° West 133 153 10,000  Level Denver Center
Wed 10:42:16 AM 42.1083 -103.9639 310° West 132 152 10,000  Level Denver Center
Wed 10:43:18 AM 42.1350 -104.0050 311° West 131 151 10,000  Level Denver Center
Wed 10:44:20 AM 42.1567 -104.0406 309° West 130 150 10,000  Level Denver Center
Wed 10:45:22 AM 42.1842 -104.0822 312° West 131 151 10,000  Level Denver Center
Wed 10:46:24 AM 42.2067 -104.1178 311° West 131 151 10,000  Level Denver Center
Wed 10:47:26 AM 42.2333 -104.1589 311° West 130 150 10,000  Level Denver Center
Wed 10:48:28 AM 42.2572 -104.1950 312° West 132 152 10,000  Level Denver Center
Wed 10:49:30 AM 42.2822 -104.2361 309° West 131 151 10,000  Level Denver Center
Wed 10:50:32 AM 42.3042 -104.2722 309° West 129 148 10,000  Level Denver Center
Wed 10:51:34 AM 42.3269 -104.3075 311° West 130 150 10,000  Level Denver Center
Wed 10:52:36 AM 42.3544 -104.3489 312° West 132 152 10,000  Level Denver Center
Wed 10:53:38 AM 42.3758 -104.3850 309° West 130 150 10,000  Level Denver Center
Wed 10:54:40 AM 42.4025 -104.4269 311° West 131 151 10,000 48 Level Denver Center
Wed 10:55:42 AM 42.4258 -104.4633 311° West 132 152 10,100  Climbing Denver Center
Wed 10:56:44 AM 42.4525 -104.5064 310° West 133 153 10,000 -48 Descending Denver Center
Wed 10:57:46 AM 42.4756 -104.5422 311° West 133 153 10,000  Level Denver Center
Wed 10:58:48 AM 42.5014 -104.5856 309° West 132 152 10,000  Level Denver Center
Wed 10:59:50 AM 42.5239 -104.6228 309° West 132 152 10,000  Level Denver Center
Wed 11:00:52 AM 42.5367 -104.6675 291° West 133 153 10,000  Level Denver Center
Wed 11:01:54 AM 42.5547 -104.7192 295° West 134 154 10,000  Level Denver Center
Wed 11:02:56 AM 42.5697 -104.7633 295° West 134 154 10,000 48 Level Denver Center
Wed 11:03:58 AM 42.5872 -104.8142 295° West 133 153 10,100 48 Climbing Denver Center
Wed 11:05:01 AM 42.6022 -104.8597 294° West 135 155 10,100  Level Denver Center
Wed 11:06:03 AM 42.6194 -104.9117 294° West 135 155 10,100  Level Denver Center
Wed 11:07:05 AM 42.6344 -104.9569 294° West 136 157 10,100  Level Denver Center
Wed 11:08:07 AM 42.6525 -105.0103 295° West 138 159 10,100  Level Denver Center
Wed 11:09:09 AM 42.6675 -105.0553 294° West 138 159 10,100  Level Denver Center
Wed 11:10:11 AM 42.6847 -105.1081 294° West 137 158 10,100  Level Denver Center
Wed 11:11:13 AM 42.6992 -105.1531 294° West 136 157 10,100  Level Denver Center
Wed 11:12:15 AM 42.7147 -105.2000 294° West 139 160 10,100  Level Denver Center
Wed 11:13:17 AM 42.7317 -105.2522 294° West 137 158 10,100  Level Denver Center
Wed 11:14:19 AM 42.7456 -105.2967 293° West 136 157 10,100  Level Denver Center
Wed 11:15:21 AM 42.7628 -105.3489 294° West 135 155 10,100  Level Denver Center
Wed 11:16:23 AM 42.7789 -105.3956 295° West 139 160 10,100  Level Denver Center
Wed 11:17:25 AM 42.7958 -105.4478 294° West 137 158 10,100 -48 Level Denver Center
Wed 11:18:27 AM 42.8117 -105.4964 294° West 141 162 10,000  Descending Denver Center
Wed 11:19:29 AM 42.8283 -105.5503 293° West 141 162 10,100 48 Climbing Denver Center
Wed 11:20:31 AM 42.8433 -105.5964 294° West 139 160 10,100 -48 Level Denver Center
Wed 11:21:33 AM 42.8614 -105.6533 293° West 143 165 10,000  Descending Denver Center
Wed 11:22:35 AM 42.8753 -105.6986 293° West 140 161 10,100 -145 Climbing Denver Center
Wed 11:23:37 AM 42.8864 -105.7575 284° West 141 162 9,700 -532 Descending Denver Center
Wed 11:24:39 AM 42.8869 -105.8178 271° West 154 177 9,000 -677 Descending Denver Center
Wed 11:25:41 AM 42.8886 -105.8883 272° West 163 188 8,300 -339 Descending Denver Center
Wed 11:26:43 AM 42.8897 -105.9456 272° West 162 186 8,300 -48 Level Denver Center
Wed 11:27:46 AM 42.8911 -105.9997 272° West 155 178 8,200 -48 Descending Denver Center
Wed 11:28:48 AM 42.8933 -106.0614 273° West 150 173 8,200 48 Level Denver Center
Wed 11:29:50 AM 42.8956 -106.1156 273° West 149 171 8,300 48 Climbing Denver Center
Wed 11:30:52 AM 42.9003 -106.1772 276° West 148 170 8,300 -242 Level Denver Center
Wed 11:31:54 AM 42.9061 -106.2333 278° West 152 175 7,800 -581 Descending Denver Center
Wed 11:32:56 AM 42.9144 -106.3028 279° West 161 185 7,100 -435 Descending Denver Center
Wed 11:33:58 AM 42.9233 -106.3589 282° West 161 185 6,900 -387 Descending Denver Center
Wed 11:35:00 AM 42.9344 -106.4225 283° West 157 181 6,300 -435 Descending Denver Center
Wed 11:36:02 AM 42.9039 -106.4472 211° Southwest 144 166 6,000 -290 Descending Denver Center
Wed 11:38:00 AM 42.9000 -106.4500 270° West  Level FlightAware Approximate

Login

Don't have an account? Register now (free) for customized features, flight alerts, and more!